Time,TemperatureF,DewpointF,PressureIn,WindDirection,WindDirectionDegrees,WindSpeedMPH,WindSpeedGustMPH,Humidity,HourlyPrecipIn,Conditions,Clouds,dailyrainin,SoftwareType,DateUTC
2013-04-26 00:02:00,50.0,39.0,30.11,SSE,161,5.0,6.0,66,0.00,,,0.00,,2013-04-26 05:02:00,
2013-04-26 00:12:00,50.0,39.0,30.11,SSE,161,5.0,6.0,66,0.00,,,0.00,,2013-04-26 05:12:00,
2013-04-26 00:22:00,50.0,39.0,30.12,SSE,147,4.0,7.0,65,0.00,,,0.00,,2013-04-26 05:22:00,
2013-04-26 00:32:00,51.0,39.0,30.13,South,180,3.0,7.0,63,0.00,,,0.00,,2013-04-26 05:32:00,
2013-04-26 00:42:00,51.0,39.0,30.13,South,180,3.0,7.0,63,0.00,,,0.00,,2013-04-26 05:42:00,
2013-04-26 00:52:00,51.0,39.0,30.14,South,169,2.0,6.0,63,0.00,,,0.00,,2013-04-26 05:52:00,
2013-04-26 01:02:00,50.0,39.0,30.13,SE,144,5.0,7.0,66,0.00,,,0.00,,2013-04-26 06:02:00,
2013-04-26 01:11:00,50.0,39.0,30.13,SE,144,5.0,7.0,66,0.00,,,0.00,,2013-04-26 06:11:00,
2013-04-26 01:21:00,50.0,39.0,30.12,SSE,164,8.0,11.0,66,0.00,,,0.00,,2013-04-26 06:21:00,
2013-04-26 01:32:00,52.0,39.0,30.12,SSE,158,9.0,14.0,62,0.00,,,0.00,,2013-04-26 06:32:00,
2013-04-26 01:42:00,52.0,39.0,30.12,SSE,158,9.0,14.0,62,0.00,,,0.00,,2013-04-26 06:42:00,
2013-04-26 01:52:00,53.0,39.0,30.12,SSE,167,10.0,13.0,60,0.00,,,0.00,,2013-04-26 06:52:00,
2013-04-26 02:01:00,52.0,39.0,30.11,SSE,148,11.0,14.0,60,0.00,,,0.00,,2013-04-26 07:01:00,
2013-04-26 02:11:00,52.0,39.0,30.11,SSE,148,11.0,14.0,60,0.00,,,0.00,,2013-04-26 07:11:00,
2013-04-26 02:22:00,52.0,39.0,30.11,South,174,11.0,16.0,60,0.00,,,0.00,,2013-04-26 07:22:00,
2013-04-26 02:31:00,53.0,39.0,30.12,South,176,9.0,18.0,59,0.00,,,0.00,,2013-04-26 07:31:00,
2013-04-26 02:42:00,53.0,39.0,30.12,South,176,9.0,18.0,59,0.00,,,0.00,,2013-04-26 07:42:00,
2013-04-26 02:52:00,52.0,39.0,30.12,SSE,153,9.0,13.0,60,0.00,,,0.00,,2013-04-26 07:52:00,
2013-04-26 03:02:00,51.0,39.0,30.10,SSE,158,8.0,11.0,64,0.00,,,0.00,,2013-04-26 08:02:00,
2013-04-26 03:11:00,51.0,39.0,30.10,SSE,158,8.0,11.0,64,0.00,,,0.00,,2013-04-26 08:11:00,
2013-04-26 03:21:00,51.0,39.0,30.09,SSE,160,9.0,13.0,64,0.00,,,0.00,,2013-04-26 08:21:00,
2013-04-26 03:32:00,53.0,39.0,30.09,South,175,10.0,19.0,59,0.00,,,0.00,,2013-04-26 08:32:00,
2013-04-26 03:42:00,53.0,39.0,30.09,South,175,10.0,19.0,59,0.00,,,0.00,,2013-04-26 08:42:00,
2013-04-26 03:52:00,53.0,39.0,30.08,South,169,9.0,15.0,60,0.00,,,0.00,,2013-04-26 08:52:00,
2013-04-26 04:01:00,53.0,40.0,30.07,SSW,196,11.0,19.0,61,0.00,,,0.00,,2013-04-26 09:01:00,
2013-04-26 04:11:00,53.0,40.0,30.07,SSW,196,11.0,19.0,61,0.00,,,0.00,,2013-04-26 09:11:00,
2013-04-26 04:21:00,53.0,40.0,30.08,SSW,208,11.0,23.0,61,0.00,,,0.00,,2013-04-26 09:21:00,
2013-04-26 04:33:00,53.0,41.0,30.07,SSW,198,11.0,18.0,64,0.00,,,0.00,,2013-04-26 09:33:00,
2013-04-26 04:42:00,53.0,41.0,30.07,SSW,198,11.0,18.0,64,0.00,,,0.00,,2013-04-26 09:42:00,
2013-04-26 04:53:00,51.0,42.0,30.06,South,175,10.0,15.0,71,0.00,,,0.00,,2013-04-26 09:53:00,
2013-04-26 05:03:00,51.0,43.0,30.06,SSW,197,8.0,13.0,73,0.00,,,0.00,,2013-04-26 10:03:00,
2013-04-26 05:12:00,51.0,43.0,30.06,SSW,197,8.0,13.0,73,0.00,,,0.00,,2013-04-26 10:12:00,
2013-04-26 05:23:00,51.0,43.0,30.07,SSW,195,8.0,13.0,73,0.00,,,0.00,,2013-04-26 10:23:00,
2013-04-26 05:33:00,51.0,41.0,30.06,SSW,211,9.0,15.0,69,0.00,,,0.00,,2013-04-26 10:33:00,
2013-04-26 05:42:00,51.0,41.0,30.06,SSW,211,9.0,15.0,69,0.00,,,0.00,,2013-04-26 10:42:00,
2013-04-26 05:52:00,52.0,42.0,30.06,South,190,11.0,16.0,69,0.00,,,0.00,,2013-04-26 10:52:00,
2013-04-26 06:02:00,51.0,42.0,30.06,South,186,9.0,15.0,72,0.00,,,0.00,,2013-04-26 11:02:00,
2013-04-26 06:11:00,51.0,42.0,30.06,South,186,9.0,15.0,72,0.00,,,0.00,,2013-04-26 11:11:00,
2013-04-26 06:22:00,51.0,43.0,30.06,South,175,8.0,12.0,74,0.00,,,0.00,,2013-04-26 11:22:00,
2013-04-26 06:32:00,51.0,43.0,30.07,South,169,9.0,13.0,75,0.00,,,0.00,,2013-04-26 11:32:00,
2013-04-26 06:41:00,51.0,43.0,30.07,South,169,9.0,13.0,75,0.00,,,0.00,,2013-04-26 11:41:00,
2013-04-26 06:52:00,51.0,43.0,30.07,South,176,6.0,13.0,75,0.00,,,0.00,,2013-04-26 11:52:00,
2013-04-26 07:01:00,50.0,43.0,30.07,South,182,8.0,12.0,76,0.00,,,0.00,,2013-04-26 12:01:00,
2013-04-26 07:11:00,50.0,43.0,30.07,South,182,8.0,12.0,76,0.00,,,0.00,,2013-04-26 12:11:00,
2013-04-26 07:21:00,50.0,43.0,30.07,SSE,165,7.0,12.0,77,0.00,,,0.00,,2013-04-26 12:21:00,
2013-04-26 07:32:00,52.0,44.0,30.08,SSE,159,9.0,14.0,75,0.00,,,0.00,,2013-04-26 12:32:00,
2013-04-26 07:42:00,52.0,44.0,30.08,SSE,159,9.0,14.0,75,0.00,,,0.00,,2013-04-26 12:42:00,
2013-04-26 07:52:00,52.0,44.0,30.08,SSE,157,9.0,15.0,73,0.00,,,0.00,,2013-04-26 12:52:00,
2013-04-26 08:01:00,52.0,44.0,30.09,South,184,10.0,15.0,73,0.00,,,0.00,,2013-04-26 13:01:00,
2013-04-26 08:11:00,52.0,44.0,30.09,South,184,10.0,15.0,73,0.00,,,0.00,,2013-04-26 13:11:00,
2013-04-26 08:21:00,53.0,45.0,30.10,South,190,12.0,18.0,73,0.00,,,0.00,,2013-04-26 13:21:00,
2013-04-26 08:31:00,54.0,45.0,30.10,South,181,11.0,20.0,72,0.00,,,0.00,,2013-04-26 13:31:00,
2013-04-26 08:42:00,54.0,45.0,30.10,South,181,11.0,20.0,72,0.00,,,0.00,,2013-04-26 13:42:00,
2013-04-26 08:52:00,55.0,45.0,30.10,South,175,12.0,18.0,70,0.00,,,0.00,,2013-04-26 13:52:00,
2013-04-26 09:01:00,55.0,45.0,30.10,South,169,14.0,20.0,69,0.00,,,0.00,,2013-04-26 14:01:00,
2013-04-26 09:11:00,55.0,45.0,30.10,South,169,14.0,20.0,69,0.00,,,0.00,,2013-04-26 14:11:00,
2013-04-26 09:21:00,56.0,46.0,30.11,South,188,11.0,20.0,69,0.00,,,0.00,,2013-04-26 14:21:00,
2013-04-26 09:32:00,56.0,46.0,30.11,South,178,14.0,21.0,68,0.00,,,0.00,,2013-04-26 14:32:00,
2013-04-26 09:41:00,56.0,46.0,30.11,South,178,14.0,21.0,68,0.00,,,0.00,,2013-04-26 14:41:00,
2013-04-26 09:52:00,57.0,46.0,30.11,South,181,14.0,22.0,67,0.00,,,0.00,,2013-04-26 14:52:00,
2013-04-26 10:01:00,57.0,46.0,30.11,South,169,13.0,20.0,67,0.00,,,0.00,,2013-04-26 15:01:00,
2013-04-26 10:12:00,57.0,46.0,30.11,South,169,13.0,20.0,67,0.00,,,0.00,,2013-04-26 15:12:00,
2013-04-26 10:21:00,57.0,46.0,30.11,South,174,15.0,22.0,66,0.00,,,0.00,,2013-04-26 15:21:00,
2013-04-26 10:33:00,58.0,47.0,30.11,South,183,15.0,23.0,66,0.00,,,0.00,,2013-04-26 15:33:00,
2013-04-26 10:43:00,58.0,47.0,30.11,South,183,15.0,23.0,66,0.00,,,0.00,,2013-04-26 15:43:00,
2013-04-26 10:53:00,58.0,47.0,30.11,South,184,16.0,24.0,66,0.00,,,0.00,,2013-04-26 15:53:00,
2013-04-26 11:03:00,58.0,47.0,30.12,South,173,16.0,23.0,66,0.00,,,0.00,,2013-04-26 16:03:00,
2013-04-26 11:12:00,58.0,47.0,30.12,South,173,16.0,23.0,66,0.00,,,0.00,,2013-04-26 16:12:00,
2013-04-26 11:23:00,59.0,48.0,30.12,SSW,192,13.0,21.0,67,0.00,,,0.00,,2013-04-26 16:23:00,
2013-04-26 11:33:00,59.0,48.0,30.12,SSW,192,13.0,21.0,67,0.00,,,0.00,,2013-04-26 16:33:00,
2013-04-26 11:42:00,59.0,48.0,30.12,SSW,192,13.0,21.0,67,0.00,,,0.00,,2013-04-26 16:42:00,
2013-04-26 11:52:00,59.0,48.0,30.12,SSW,192,13.0,21.0,67,0.00,,,0.00,,2013-04-26 16:52:00,
2013-04-26 12:02:00,59.0,48.0,30.12,SSW,192,13.0,21.0,67,0.00,,,0.00,,2013-04-26 17:02:00,
2013-04-26 17:23:00,56.0,48.0,30.14,SSE,167,11.0,15.0,75,0.00,,,0.00,,2013-04-26 22:23:00,
2013-04-26 17:33:00,55.0,48.0,30.15,South,171,9.0,14.0,78,0.00,,,0.00,,2013-04-26 22:33:00,
2013-04-26 17:42:00,55.0,48.0,30.15,South,171,9.0,14.0,78,0.00,,,0.00,,2013-04-26 22:42:00,
2013-04-26 17:52:00,55.0,49.0,30.15,South,173,9.0,15.0,79,0.00,,,0.00,,2013-04-26 22:52:00,
2013-04-26 18:02:00,55.0,49.0,30.15,South,173,10.0,14.0,79,0.00,,,0.00,,2013-04-26 23:02:00,
2013-04-26 18:11:00,55.0,49.0,30.15,South,173,10.0,14.0,79,0.00,,,0.00,,2013-04-26 23:11:00,
2013-04-26 18:21:00,54.0,48.0,30.16,South,180,10.0,15.0,81,0.00,,,0.00,,2013-04-26 23:21:00,
2013-04-26 18:32:00,53.0,48.0,30.16,SSE,161,8.0,15.0,82,0.00,,,0.00,,2013-04-26 23:32:00,
2013-04-26 18:42:00,53.0,48.0,30.16,SSE,161,8.0,15.0,82,0.00,,,0.00,,2013-04-26 23:42:00,
2013-04-26 18:52:00,53.0,48.0,30.16,South,185,8.0,12.0,83,0.00,,,0.00,,2013-04-26 23:52:00,
2013-04-26 19:01:00,53.0,48.0,30.17,South,175,5.0,10.0,84,0.00,,,0.00,,2013-04-27 00:01:00,
2013-04-26 19:11:00,53.0,48.0,30.17,South,175,5.0,10.0,84,0.00,,,0.00,,2013-04-27 00:11:00,
2013-04-26 19:21:00,53.0,48.0,30.17,South,183,6.0,11.0,84,0.00,,,0.00,,2013-04-27 00:21:00,
2013-04-26 19:32:00,52.0,47.0,30.17,SSE,156,6.0,9.0,84,0.00,,,0.00,,2013-04-27 00:32:00,
2013-04-26 19:42:00,52.0,47.0,30.17,SSE,156,6.0,9.0,84,0.00,,,0.00,,2013-04-27 00:42:00,
2013-04-26 19:52:00,52.0,48.0,30.17,South,177,4.0,7.0,85,0.00,,,0.00,,2013-04-27 00:52:00,
2013-04-26 20:01:00,52.0,48.0,30.17,SSE,153,5.0,8.0,85,0.00,,,0.00,,2013-04-27 01:01:00,
2013-04-26 20:12:00,52.0,48.0,30.17,SSE,153,5.0,8.0,85,0.00,,,0.00,,2013-04-27 01:12:00,
2013-04-26 20:21:00,52.0,48.0,30.19,SSE,155,3.0,7.0,85,0.00,,,0.00,,2013-04-27 01:21:00,
2013-04-26 20:32:00,52.0,48.0,30.18,South,175,3.0,6.0,86,0.00,,,0.00,,2013-04-27 01:32:00,
2013-04-26 20:42:00,52.0,48.0,30.18,South,175,3.0,6.0,86,0.00,,,0.00,,2013-04-27 01:42:00,
2013-04-26 20:52:00,52.0,48.0,30.18,SSE,150,3.0,5.0,86,0.00,,,0.00,,2013-04-27 01:52:00,
2013-04-26 21:01:00,52.0,48.0,30.18,SE,134,4.0,6.0,86,0.00,,,0.00,,2013-04-27 02:01:00,
2013-04-26 21:11:00,52.0,48.0,30.18,SE,134,4.0,6.0,86,0.00,,,0.00,,2013-04-27 02:11:00,
2013-04-26 21:22:00,52.0,48.0,30.18,SE,131,3.0,6.0,86,0.00,,,0.00,,2013-04-27 02:22:00,
2013-04-26 21:32:00,52.0,48.0,30.19,SE,132,1.0,4.0,87,0.00,,,0.00,,2013-04-27 02:32:00,
2013-04-26 21:42:00,52.0,48.0,30.19,SE,132,1.0,4.0,87,0.00,,,0.00,,2013-04-27 02:42:00,
2013-04-26 21:52:00,52.0,48.0,30.20,SE,136,1.0,6.0,87,0.00,,,0.00,,2013-04-27 02:52:00,
2013-04-26 22:02:00,51.0,47.0,30.20,SE,137,0.0,2.0,87,0.00,,,0.00,,2013-04-27 03:02:00,
2013-04-26 22:11:00,51.0,47.0,30.20,SE,137,0.0,2.0,87,0.00,,,0.00,,2013-04-27 03:11:00,
2013-04-26 22:22:00,51.0,48.0,30.21,SE,137,1.0,3.0,88,0.00,,,0.00,,2013-04-27 03:22:00,
2013-04-26 22:33:00,51.0,48.0,30.21,SE,135,1.0,5.0,88,0.00,,,0.00,,2013-04-27 03:33:00,
2013-04-26 22:42:00,51.0,48.0,30.21,SE,135,1.0,5.0,88,0.00,,,0.00,,2013-04-27 03:42:00,
2013-04-26 22:53:00,51.0,48.0,30.21,SE,135,0.0,2.0,88,0.00,,,0.00,,2013-04-27 03:53:00,
2013-04-26 23:02:00,51.0,48.0,30.21,SE,135,0.0,1.0,88,0.00,,,0.00,,2013-04-27 04:02:00,
2013-04-26 23:12:00,51.0,48.0,30.21,SE,135,0.0,1.0,88,0.00,,,0.00,,2013-04-27 04:12:00,
2013-04-26 23:22:00,51.0,48.0,30.21,SE,135,0.0,2.0,88,0.00,,,0.00,,2013-04-27 04:22:00,
2013-04-26 23:33:00,51.0,48.0,30.21,SE,135,0.0,1.0,89,0.00,,,0.00,,2013-04-27 04:33:00,
2013-04-26 23:43:00,51.0,48.0,30.21,SE,135,0.0,1.0,89,0.00,,,0.00,,2013-04-27 04:43:00,
2013-04-26 23:53:00,50.0,47.0,30.20,SE,135,0.0,0.0,89,0.00,,,0.00,,2013-04-27 04:53:00,